Flexbury, United Kingdom
Current Conditions -  °F | °C
As of 4:50 PM on Thursday 23 Oct 2014 (Local Time) from EGHQ Reporting Station
Broken Clouds Broken Clouds  
Wind Chill: 57°   Ceiling: 2000
Heat Index: 57°   Visibility: 6mi
Dew Point: 54°   Wind: 15mph
Humidity: 88%   Direction: 240°WSW
Pressure: 30.06"   Gusts: NA
Location:  50.84°N, 4.54°W
Report Text: EGHQ 231550Z 24013KT 9999 SCT008 BKN020 14/12 Q1018 REDZ
Loading
Personal Weather Stations






























Interactive Weather Map
Tropical Storm Tracking
New forecast layout! Learn more

10-Day Weather Forecast

Advertisements
Track Severe Weather on mobile